createdAt,value
2023-04-07T00:01:39.447Z,5.20
2023-04-07T00:04:06.204Z,5.03
2023-04-07T00:06:32.825Z,4.80
2023-04-07T00:08:59.262Z,5.50
2023-04-07T00:11:25.779Z,5.32
2023-04-07T00:13:52.368Z,5.85
2023-04-07T00:16:19.167Z,5.50
2023-04-07T00:18:45.708Z,5.32
2023-04-07T00:21:12.184Z,5.95
2023-04-07T00:23:38.684Z,6.43
2023-04-07T00:26:05.251Z,6.07
2023-04-07T00:28:31.784Z,5.80
2023-04-07T00:30:58.200Z,6.43
2023-04-07T00:33:24.698Z,6.40
2023-04-07T00:35:51.336Z,6.70
2023-04-07T00:38:17.838Z,6.63
2023-04-07T00:40:44.307Z,6.68
2023-04-07T00:43:10.932Z,6.63
2023-04-07T00:45:38.003Z,6.20
2023-04-07T00:48:05.503Z,6.18
2023-04-07T00:50:32.232Z,5.72
2023-04-07T00:52:58.953Z,6.18
2023-04-07T00:55:25.369Z,6.47
2023-04-07T00:57:52.031Z,6.80
2023-04-07T01:00:18.621Z,5.88
2023-04-07T01:02:57.714Z,6.53
2023-04-07T01:05:36.565Z,6.57
2023-04-07T01:08:15.532Z,6.32
2023-04-07T01:10:49.818Z,5.32
2023-04-07T01:13:38.676Z,6.35
2023-04-07T01:16:11.818Z,6.30
2023-04-07T01:18:40.332Z,5.45
2023-04-07T01:23:52.995Z,6.13
2023-04-07T01:26:29.272Z,5.70
2023-04-07T01:29:17.396Z,6.10
2023-04-07T01:31:45.992Z,5.97
2023-04-07T01:34:14.345Z,6.45
2023-04-07T01:36:42.523Z,6.43
2023-04-07T01:39:09.909Z,6.10
2023-04-07T01:41:38.450Z,6.65
2023-04-07T01:44:08.110Z,6.65
2023-04-07T01:46:34.750Z,6.85
2023-04-07T01:49:02.082Z,6.70
2023-04-07T01:51:31.021Z,7.20
2023-04-07T01:53:59.051Z,7.93
2023-04-07T01:56:25.621Z,7.65
2023-04-07T01:58:52.125Z,7.22
2023-04-07T02:01:18.688Z,7.85
2023-04-07T02:04:05.292Z,7.90
2023-04-07T02:06:35.480Z,8.07
2023-04-07T02:09:07.229Z,8.65
2023-04-07T02:11:35.738Z,8.77
2023-04-07T02:16:31.798Z,7.57
2023-04-07T02:18:59.623Z,7.45
2023-04-07T02:21:28.246Z,7.63
2023-04-07T02:23:54.986Z,7.72
2023-04-07T02:26:21.805Z,7.28
2023-04-07T02:28:48.324Z,7.32
2023-04-07T02:31:14.910Z,7.47
2023-04-07T02:33:41.513Z,7.22
2023-04-07T02:36:08.113Z,7.40
2023-04-07T02:38:34.596Z,7.30
2023-04-07T02:41:01.062Z,7.07
2023-04-07T02:43:27.562Z,7.07
2023-04-07T02:45:54.869Z,6.57
2023-04-07T02:48:21.348Z,6.93
2023-04-07T02:50:47.782Z,7.22
2023-04-07T02:53:14.426Z,6.90
2023-04-07T02:55:40.884Z,7.22
2023-04-07T02:58:07.450Z,7.38
2023-04-07T03:00:34.545Z,6.70
2023-04-07T03:03:01.899Z,6.88
2023-04-07T03:05:28.504Z,6.68
2023-04-07T03:07:55.019Z,6.50
2023-04-07T03:10:21.571Z,6.57
2023-04-07T03:12:47.996Z,6.43
2023-04-07T03:15:14.450Z,6.80
2023-04-07T03:17:41.081Z,6.47
2023-04-07T03:20:08.276Z,7.22
2023-04-07T03:22:34.681Z,6.32
2023-04-07T03:25:01.465Z,6.32
2023-04-07T03:27:27.914Z,6.15
2023-04-07T03:29:54.484Z,6.05
2023-04-07T03:32:20.944Z,6.13
2023-04-07T03:34:47.378Z,6.10
2023-04-07T03:37:13.955Z,6.47
2023-04-07T03:39:41.113Z,5.97
2023-04-07T03:42:07.758Z,6.00
2023-04-07T03:44:34.293Z,5.88
2023-04-07T03:47:01.273Z,5.80
2023-04-07T03:49:27.814Z,5.75
2023-04-07T03:51:54.271Z,5.82
2023-04-07T03:54:21.030Z,5.25
2023-04-07T03:56:47.513Z,5.70
2023-04-07T03:59:14.011Z,5.22
2023-04-07T04:01:40.634Z,5.68
2023-04-07T04:04:07.376Z,5.28
2023-04-07T04:06:34.025Z,5.63
2023-04-07T04:09:00.469Z,5.38
2023-04-07T04:11:27.549Z,5.28
2023-04-07T04:13:54.369Z,5.88
2023-04-07T04:16:21.341Z,5.25
2023-04-07T04:18:47.868Z,5.03
2023-04-07T04:21:14.361Z,5.50
2023-04-07T04:23:40.807Z,4.97
2023-04-07T04:26:07.214Z,5.53
2023-04-07T04:28:33.695Z,5.18
2023-04-07T04:31:00.322Z,5.13
2023-04-07T04:33:26.900Z,5.68
2023-04-07T04:35:53.480Z,5.95
2023-04-07T04:38:19.941Z,5.38
2023-04-07T04:40:46.458Z,5.68
2023-04-07T04:43:12.930Z,5.03
2023-04-07T04:45:39.414Z,5.55
2023-04-07T04:48:06.404Z,5.25
2023-04-07T04:50:32.995Z,5.68
2023-04-07T04:52:59.422Z,5.97
2023-04-07T04:55:25.904Z,5.53
2023-04-07T04:57:52.449Z,6.05
2023-04-07T05:00:19.333Z,5.72
2023-04-07T05:02:47.135Z,5.75
2023-04-07T05:05:13.831Z,5.85
2023-04-07T05:07:40.517Z,5.35
2023-04-07T05:10:08.281Z,5.90
2023-04-07T05:12:35.213Z,5.78
2023-04-07T05:15:01.714Z,4.93
2023-04-07T05:17:28.297Z,5.15
2023-04-07T05:19:54.784Z,4.80
2023-04-07T05:22:21.449Z,4.43
2023-04-07T05:24:48.060Z,3.75
2023-04-07T05:27:14.491Z,4.22
2023-04-07T05:29:40.944Z,3.58
2023-04-07T05:32:07.525Z,3.50
2023-04-07T05:34:34.102Z,4.00
2023-04-07T05:37:00.835Z,3.92
2023-04-07T05:39:27.303Z,3.97
2023-04-07T05:41:53.841Z,4.22
2023-04-07T05:44:20.401Z,4.95
2023-04-07T05:46:46.914Z,4.30
2023-04-07T05:49:20.161Z,4.50
2023-04-07T05:51:48.838Z,4.20
2023-04-07T05:54:15.879Z,4.13
2023-04-07T05:56:42.451Z,4.30
2023-04-07T05:59:10.013Z,4.28
2023-04-07T06:01:36.600Z,4.30
2023-04-07T06:04:04.225Z,4.25
2023-04-07T06:06:31.389Z,4.00
2023-04-07T06:08:58.024Z,4.35
2023-04-07T06:11:24.513Z,4.30
2023-04-07T06:13:51.314Z,4.30
2023-04-07T06:16:19.505Z,4.07
2023-04-07T06:18:46.359Z,4.30
2023-04-07T06:21:12.949Z,3.90
2023-04-07T06:23:39.449Z,4.25
2023-04-07T06:26:06.147Z,4.07
2023-04-07T06:28:32.681Z,3.80
2023-04-07T06:30:59.797Z,4.40
2023-04-07T06:33:26.501Z,3.80
2023-04-07T06:35:53.116Z,4.28
2023-04-07T06:38:19.688Z,3.97
2023-04-07T06:40:46.327Z,3.70
2023-04-07T06:43:12.981Z,4.13
2023-04-07T06:45:39.513Z,3.83
2023-04-07T06:48:06.529Z,4.30
2023-04-07T06:50:33.081Z,3.80
2023-04-07T06:52:59.529Z,3.83
2023-04-07T06:55:27.255Z,4.00
2023-04-07T06:57:53.821Z,3.88
2023-04-07T07:00:20.697Z,3.85
2023-04-07T07:02:47.216Z,3.88
2023-04-07T07:05:13.836Z,4.25
2023-04-07T07:07:40.683Z,4.05
2023-04-07T07:10:10.295Z,4.90
2023-04-07T07:12:37.278Z,4.50
2023-04-07T07:15:04.203Z,4.30
2023-04-07T07:17:30.855Z,4.43
2023-04-07T07:19:57.349Z,4.50
2023-04-07T07:22:23.831Z,4.63
2023-04-07T07:24:51.158Z,4.63
2023-04-07T07:27:17.703Z,4.53
2023-04-07T07:29:44.136Z,4.60
2023-04-07T07:32:10.709Z,4.50
2023-04-07T07:34:37.255Z,4.63
2023-04-07T07:37:03.986Z,4.68
2023-04-07T07:39:30.547Z,4.47
2023-04-07T07:41:57.331Z,4.35
2023-04-07T07:44:23.885Z,4.72
2023-04-07T07:46:51.299Z,4.78
2023-04-07T07:49:18.009Z,4.18
2023-04-07T07:51:46.129Z,4.65
2023-04-07T07:54:12.743Z,4.30
2023-04-07T07:56:39.242Z,4.30
2023-04-07T07:59:08.773Z,4.57
2023-04-07T08:01:35.466Z,5.50
2023-04-07T08:04:02.178Z,4.57
2023-04-07T08:06:29.313Z,4.40
2023-04-07T08:08:56.125Z,4.28
2023-04-07T08:11:23.145Z,4.00
2023-04-07T08:13:49.868Z,3.92
2023-04-07T08:16:16.689Z,3.50
2023-04-07T08:18:43.200Z,3.80
2023-04-07T08:21:09.697Z,3.25
2023-04-07T08:23:36.348Z,4.65
2023-04-07T08:26:02.857Z,3.60
2023-04-07T08:28:29.338Z,3.00
2023-04-07T08:30:55.745Z,3.22
2023-04-07T08:33:22.381Z,2.90
2023-04-07T08:35:48.877Z,2.90
2023-04-07T08:38:15.537Z,2.85
2023-04-07T08:40:42.825Z,2.83
2023-04-07T08:43:10.630Z,2.78
2023-04-07T08:45:40.641Z,3.05
2023-04-07T08:48:17.798Z,3.10
2023-04-07T08:50:51.543Z,3.10
2023-04-07T08:53:23.389Z,2.50
2023-04-07T08:55:50.069Z,2.60
2023-04-07T08:58:17.214Z,3.08
2023-04-07T09:00:45.836Z,2.45
2023-04-07T09:03:13.000Z,2.80
2023-04-07T09:05:39.854Z,2.60
2023-04-07T09:08:06.836Z,2.13
2023-04-07T09:10:33.310Z,2.67
2023-04-07T09:12:59.905Z,2.30
2023-04-07T09:15:31.540Z,2.05
2023-04-07T09:17:59.212Z,2.50
2023-04-07T09:20:25.847Z,2.30
2023-04-07T09:22:52.498Z,2.63
2023-04-07T09:25:24.027Z,2.65
2023-04-07T09:27:55.201Z,2.35
2023-04-07T09:30:22.158Z,2.50
2023-04-07T09:32:48.891Z,2.47
2023-04-07T09:35:16.111Z,2.72
2023-04-07T09:37:42.722Z,2.70
2023-04-07T09:40:09.730Z,2.90
2023-04-07T09:42:45.374Z,3.05
2023-04-07T09:45:14.532Z,3.05
2023-04-07T09:47:45.179Z,2.83
2023-04-07T09:50:12.299Z,2.88
2023-04-07T09:52:52.518Z,3.20
2023-04-07T09:55:23.784Z,2.80
2023-04-07T09:57:51.289Z,2.63
2023-04-07T10:00:18.042Z,2.70
2023-04-07T10:02:44.943Z,3.00
2023-04-07T10:05:11.902Z,3.13
2023-04-07T10:07:40.032Z,2.95
2023-04-07T10:10:08.513Z,2.47
2023-04-07T10:12:37.482Z,2.50
2023-04-07T10:15:04.932Z,2.03
2023-04-07T10:17:36.671Z,2.95
2023-04-07T10:20:07.111Z,2.65
2023-04-07T10:22:36.139Z,3.10
2023-04-07T10:25:10.624Z,2.22
2023-04-07T10:27:53.390Z,2.42
2023-04-07T10:30:26.261Z,2.55
2023-04-07T10:32:54.401Z,2.92
2023-04-07T10:35:22.282Z,2.35
2023-04-07T10:38:06.992Z,2.50
2023-04-07T10:40:34.477Z,2.45
2023-04-07T10:43:01.255Z,2.53
2023-04-07T10:45:45.697Z,2.45
2023-04-07T10:48:13.854Z,2.35
2023-04-07T10:50:40.530Z,2.95
2023-04-07T10:53:12.394Z,4.25
2023-04-07T10:55:40.337Z,2.60
2023-04-07T10:58:31.061Z,4.75
2023-04-07T11:00:57.553Z,3.33
2023-04-07T11:03:25.235Z,7.55
2023-04-07T11:05:52.156Z,4.28
2023-04-07T11:08:43.057Z,6.50
2023-04-07T11:11:11.192Z,5.97
2023-04-07T11:13:48.657Z,3.33
2023-04-07T11:16:17.478Z,2.17
2023-04-07T11:18:45.002Z,2.60
2023-04-07T11:21:11.522Z,2.80
2023-04-07T11:23:39.392Z,2.60
2023-04-07T11:26:06.138Z,2.25
2023-04-07T11:28:32.896Z,2.78
2023-04-07T11:31:00.196Z,2.13
2023-04-07T11:33:32.128Z,1.92
2023-04-07T11:36:01.373Z,2.60
2023-04-07T11:38:30.610Z,2.50
2023-04-07T11:41:11.042Z,3.00
2023-04-07T11:43:37.901Z,2.50
2023-04-07T11:46:18.398Z,2.30
2023-04-07T11:48:47.240Z,2.42
2023-04-07T11:51:23.679Z,2.85
2023-04-07T11:53:56.901Z,2.13
2023-04-07T11:56:23.479Z,2.53
2023-04-07T11:58:54.947Z,3.80
2023-04-07T12:01:24.601Z,3.22
2023-04-07T12:04:04.887Z,2.40
2023-04-07T12:06:35.045Z,2.90
2023-04-07T12:09:02.880Z,2.83
2023-04-07T12:11:30.095Z,3.20
2023-04-07T12:13:57.180Z,6.55
2023-04-07T12:16:24.285Z,4.63
2023-04-07T12:18:54.340Z,5.30
2023-04-07T12:21:20.919Z,2.95
2023-04-07T12:23:48.588Z,2.85
2023-04-07T12:26:15.469Z,2.72
2023-04-07T12:28:41.903Z,8.30
2023-04-07T12:31:08.335Z,3.38
2023-04-07T12:33:34.889Z,2.40
2023-04-07T12:36:01.553Z,2.40
2023-04-07T12:38:28.713Z,2.60
2023-04-07T12:40:55.244Z,2.70
2023-04-07T12:43:21.636Z,2.42
2023-04-07T12:45:48.144Z,2.40
2023-04-07T12:48:16.247Z,2.83
2023-04-07T12:50:42.800Z,2.67
2023-04-07T12:53:09.426Z,2.28
2023-04-07T12:55:36.652Z,2.30
2023-04-07T12:58:03.502Z,2.60
2023-04-07T13:00:30.441Z,2.78
2023-04-07T13:02:57.469Z,3.35
2023-04-07T13:05:24.194Z,3.10
2023-04-07T13:07:50.701Z,3.13
2023-04-07T13:10:17.422Z,3.20
2023-04-07T13:12:43.866Z,3.17
2023-04-07T13:15:10.511Z,3.35
2023-04-07T13:17:37.081Z,2.83
2023-04-07T13:20:05.009Z,4.10
2023-04-07T13:22:32.204Z,3.10
2023-04-07T13:25:00.221Z,3.08
2023-04-07T13:27:27.547Z,3.00
2023-04-07T13:29:53.974Z,2.72
2023-04-07T13:32:20.432Z,3.85
2023-04-07T13:34:46.989Z,4.47
2023-04-07T13:37:13.603Z,3.30
2023-04-07T13:39:40.171Z,4.38
2023-04-07T13:42:07.013Z,4.45
2023-04-07T13:44:34.510Z,4.07
2023-04-07T13:47:01.430Z,4.03
2023-04-07T13:49:28.025Z,4.15
2023-04-07T13:51:54.543Z,4.40
2023-04-07T13:54:21.257Z,4.60
2023-04-07T13:56:50.991Z,4.22
2023-04-07T13:59:17.431Z,4.07
2023-04-07T14:01:43.982Z,4.57
2023-04-07T14:04:10.732Z,4.50
2023-04-07T14:06:37.993Z,3.60
2023-04-07T14:09:06.305Z,3.58
2023-04-07T14:11:34.692Z,3.67
2023-04-07T14:14:02.010Z,2.38
2023-04-07T14:16:28.663Z,3.05
2023-04-07T14:18:56.009Z,3.08
2023-04-07T14:21:22.723Z,3.55
2023-04-07T14:23:49.144Z,3.20
2023-04-07T14:26:15.733Z,3.40
2023-04-07T14:28:42.185Z,3.25
2023-04-07T14:31:13.006Z,2.97
2023-04-07T14:33:39.626Z,3.17
2023-04-07T14:36:06.242Z,4.13
2023-04-07T14:38:34.834Z,3.95
2023-04-07T14:43:32.603Z,4.18
2023-04-07T14:45:59.834Z,4.38
2023-04-07T14:48:26.742Z,5.22
2023-04-07T14:51:06.025Z,4.57
2023-04-07T14:53:35.029Z,3.45
2023-04-07T14:56:06.982Z,5.20
2023-04-07T14:58:33.823Z,7.60
2023-04-07T15:01:00.225Z,4.85
2023-04-07T15:03:26.816Z,4.40
2023-04-07T15:05:53.638Z,4.15
2023-04-07T15:08:20.274Z,4.00
2023-04-07T15:10:46.690Z,4.32
2023-04-07T15:13:13.116Z,3.90
2023-04-07T15:15:39.543Z,4.35
2023-04-07T15:18:06.098Z,4.35
2023-04-07T15:20:32.900Z,4.53
2023-04-07T15:23:01.394Z,4.80
2023-04-07T15:27:55.232Z,4.50
2023-04-07T15:30:21.788Z,4.85
2023-04-07T15:33:02.674Z,4.93
2023-04-07T15:35:29.178Z,4.95
2023-04-07T15:37:55.895Z,5.07
2023-04-07T15:40:22.759Z,5.15
2023-04-07T15:42:49.165Z,5.25
2023-04-07T15:45:15.610Z,4.90
2023-04-07T15:47:42.189Z,5.32
2023-04-07T15:50:09.298Z,5.45
2023-04-07T15:52:35.697Z,6.00
2023-04-07T15:55:02.174Z,9.57
2023-04-07T15:57:28.544Z,16.63
2023-04-07T15:59:54.979Z,5.47
2023-04-07T16:02:21.635Z,4.55
2023-04-07T16:04:48.307Z,5.28
2023-04-07T16:07:14.760Z,5.63
2023-04-07T16:09:41.245Z,5.60
2023-04-07T16:12:07.736Z,5.93
2023-04-07T16:14:34.302Z,6.90
2023-04-07T16:17:00.976Z,5.07
2023-04-07T16:19:27.779Z,5.57
2023-04-07T16:21:54.780Z,5.55
2023-04-07T16:24:21.765Z,5.57
2023-04-07T16:26:50.431Z,5.47
2023-04-07T16:29:18.229Z,7.45
2023-04-07T16:31:44.754Z,7.22
2023-04-07T16:34:12.565Z,7.40
2023-04-07T16:36:39.327Z,7.50
2023-04-07T16:39:05.908Z,8.32
2023-04-07T16:41:32.618Z,9.77
2023-04-07T16:43:59.135Z,7.15
2023-04-07T16:46:29.856Z,8.50
2023-04-07T16:48:56.481Z,8.00
2023-04-07T16:51:24.154Z,7.85
2023-04-07T16:53:51.111Z,8.65
2023-04-07T16:56:22.294Z,12.38
2023-04-07T16:58:49.685Z,8.63
2023-04-07T17:01:17.080Z,7.72
2023-04-07T17:03:44.176Z,20.95
2023-04-07T17:06:10.738Z,8.98
2023-04-07T17:08:38.552Z,15.52
2023-04-07T17:11:09.558Z,12.00
2023-04-07T17:13:36.541Z,9.02
2023-04-07T17:16:04.073Z,11.63
2023-04-07T17:18:32.221Z,8.32
2023-04-07T17:20:58.984Z,13.77
2023-04-07T17:23:25.748Z,8.80
2023-04-07T17:25:52.199Z,9.07
2023-04-07T17:28:18.615Z,13.82
2023-04-07T17:30:45.103Z,9.50
2023-04-07T17:33:12.300Z,12.55
2023-04-07T17:35:38.989Z,10.98
2023-04-07T17:38:06.707Z,12.13
2023-04-07T17:40:33.238Z,9.80
2023-04-07T17:43:00.153Z,9.77
2023-04-07T17:45:26.752Z,10.10
2023-04-07T17:47:53.356Z,9.10
2023-04-07T17:50:19.806Z,9.20
2023-04-07T17:52:46.806Z,9.45
2023-04-07T17:55:13.309Z,10.60
2023-04-07T17:57:40.534Z,10.35
2023-04-07T18:00:08.191Z,11.40
2023-04-07T18:02:35.101Z,14.63
2023-04-07T18:05:01.879Z,8.93
2023-04-07T18:07:29.422Z,9.63
2023-04-07T18:09:57.930Z,11.98
2023-04-07T18:12:24.601Z,12.88
2023-04-07T18:14:51.010Z,9.30
2023-04-07T18:17:17.457Z,9.95
2023-04-07T18:19:44.020Z,12.48
2023-04-07T18:22:10.537Z,14.98
2023-04-07T18:24:37.094Z,10.45
2023-04-07T18:27:04.138Z,10.23
2023-04-07T18:29:30.978Z,9.82
2023-04-07T18:31:57.571Z,10.65
2023-04-07T18:34:26.164Z,10.35
2023-04-07T18:36:53.832Z,11.40
2023-04-07T18:39:20.506Z,10.32
2023-04-07T18:41:48.315Z,11.38
2023-04-07T18:44:14.916Z,14.23
2023-04-07T18:46:41.474Z,17.33
2023-04-07T18:49:08.149Z,12.32
2023-04-07T18:51:34.916Z,10.82
2023-04-07T18:54:01.389Z,12.10
2023-04-07T18:56:28.523Z,12.02
2023-04-07T18:58:54.989Z,12.15
2023-04-07T19:01:21.747Z,11.73
2023-04-07T19:03:48.636Z,11.63
2023-04-07T19:06:16.701Z,12.70
2023-04-07T19:08:43.363Z,16.80
2023-04-07T19:11:10.239Z,15.02
2023-04-07T19:13:36.732Z,14.95
2023-04-07T19:16:03.612Z,15.80
2023-04-07T19:18:31.797Z,14.32
2023-04-07T19:20:58.422Z,13.35
2023-04-07T19:23:25.342Z,13.65
2023-04-07T19:25:51.792Z,13.70
2023-04-07T19:28:18.434Z,14.60
2023-04-07T19:30:45.013Z,15.38
2023-04-07T19:33:11.949Z,13.82
2023-04-07T19:35:41.520Z,16.80
2023-04-07T19:38:08.064Z,13.32
2023-04-07T19:40:36.437Z,13.77
2023-04-07T19:43:03.243Z,13.63
2023-04-07T19:45:29.769Z,14.45
2023-04-07T19:47:56.948Z,19.45
2023-04-07T19:50:23.686Z,34.53
2023-04-07T19:52:53.171Z,16.60
2023-04-07T19:55:19.762Z,14.48
2023-04-07T19:57:47.054Z,14.82
2023-04-07T20:00:13.911Z,14.65
2023-04-07T20:02:40.507Z,17.02
2023-04-07T20:05:07.314Z,17.98
2023-04-07T20:07:33.823Z,16.02
2023-04-07T20:10:01.202Z,15.43
2023-04-07T20:12:27.705Z,14.70
2023-04-07T20:14:54.125Z,13.35
2023-04-07T20:17:20.672Z,13.18
2023-04-07T20:19:47.925Z,13.18
2023-04-07T20:22:14.403Z,14.07
2023-04-07T20:24:40.886Z,14.20
2023-04-07T20:27:07.322Z,14.07
2023-04-07T20:29:33.827Z,13.18
2023-04-07T20:32:00.279Z,14.60
2023-04-07T20:34:26.704Z,13.85
2023-04-07T20:36:53.780Z,13.98
2023-04-07T20:39:20.249Z,13.88
2023-04-07T20:41:46.939Z,15.75
2023-04-07T20:44:13.410Z,16.45
2023-04-07T20:46:40.082Z,17.50
2023-04-07T20:49:07.853Z,13.98
2023-04-07T20:51:36.718Z,14.80
2023-04-07T20:54:03.743Z,14.65
2023-04-07T20:56:30.290Z,15.93
2023-04-07T20:58:56.714Z,15.70
2023-04-07T21:01:23.319Z,15.35
2023-04-07T21:03:49.894Z,16.05
2023-04-07T21:06:16.393Z,14.43
2023-04-07T21:08:42.829Z,14.63
2023-04-07T21:11:09.665Z,14.10
2023-04-07T21:13:36.097Z,14.30
2023-04-07T21:16:04.915Z,14.02
2023-04-07T21:18:31.928Z,15.27
2023-04-07T21:20:59.634Z,15.50
2023-04-07T21:23:26.108Z,14.40
2023-04-07T21:25:52.551Z,15.48
2023-04-07T21:28:19.009Z,15.45
2023-04-07T21:30:45.771Z,14.90
2023-04-07T21:33:14.092Z,13.45
2023-04-07T21:35:40.838Z,14.65
2023-04-07T21:38:07.289Z,12.82
2023-04-07T21:40:33.758Z,12.93
2023-04-07T21:43:00.285Z,13.23
2023-04-07T21:45:26.842Z,13.32
2023-04-07T21:47:53.322Z,12.40
2023-04-07T21:50:19.838Z,12.95
2023-04-07T21:52:50.620Z,13.20
2023-04-07T21:55:18.838Z,11.93
2023-04-07T21:57:45.467Z,12.82
2023-04-07T22:00:12.941Z,12.85
2023-04-07T22:02:39.836Z,13.05
2023-04-07T22:05:06.532Z,12.73
2023-04-07T22:07:33.623Z,13.15
2023-04-07T22:10:00.335Z,13.13
2023-04-07T22:12:26.835Z,13.05
2023-04-07T22:14:53.283Z,13.50
2023-04-07T22:17:19.768Z,13.90
2023-04-07T22:19:46.459Z,12.80
2023-04-07T22:22:13.036Z,13.68
2023-04-07T22:24:39.463Z,13.05
2023-04-07T22:27:06.058Z,13.82
2023-04-07T22:29:32.497Z,13.18
2023-04-07T22:31:58.951Z,12.80
2023-04-07T22:34:25.377Z,13.68
2023-04-07T22:36:51.827Z,12.02
2023-04-07T22:39:18.226Z,12.68
2023-04-07T22:41:44.634Z,12.73
2023-04-07T22:44:11.137Z,12.52
2023-04-07T22:46:37.596Z,12.90
2023-04-07T22:49:04.989Z,12.93
2023-04-07T22:51:31.434Z,12.60
2023-04-07T22:53:57.906Z,11.77
2023-04-07T22:56:24.614Z,12.15
2023-04-07T22:58:51.647Z,12.50
2023-04-07T23:01:18.485Z,11.48
2023-04-07T23:03:45.342Z,10.82
2023-04-07T23:06:11.854Z,10.55
2023-04-07T23:08:38.340Z,11.50
2023-04-07T23:11:09.777Z,11.30
2023-04-07T23:13:36.250Z,12.43
2023-04-07T23:16:03.927Z,13.02
2023-04-07T23:18:31.457Z,12.77
2023-04-07T23:20:57.855Z,11.50
2023-04-07T23:23:24.315Z,11.93
2023-04-07T23:25:50.802Z,11.45
2023-04-07T23:28:17.220Z,11.98
2023-04-07T23:30:43.693Z,11.40
2023-04-07T23:33:10.201Z,9.75
2023-04-07T23:35:36.745Z,10.38
2023-04-07T23:38:03.351Z,9.68
2023-04-07T23:40:29.917Z,10.25
2023-04-07T23:42:56.604Z,9.65
2023-04-07T23:45:23.041Z,9.60
2023-04-07T23:47:49.482Z,9.57
2023-04-07T23:50:16.340Z,9.27
2023-04-07T23:52:44.060Z,9.80
2023-04-07T23:55:10.652Z,9.77
2023-04-07T23:57:37.203Z,9.15
